Airport Name : Chennault Intl

Other Name : Chennault Intl

ICAO : KCWF

IATA :

FAA : CWF

Latitude : 30.210592

Longitude : -93.143189

Country : United States

Local Date and Time : 22 May 2024 16:43

 

TAF (Terminal Aerodrome Forecast)

 

METAR (METeorological Aerodrome Report)

KCWF 222045Z 16015KT 10SM BKN022 BKN030 30/24 A2987

KCWF 221955Z 17013KT 10SM BKN024 OVC030 31/24 A2989

KCWF 221850Z 17013G18KT 10SM BKN024 OVC030 29/24 A2992

KCWF 221745Z 16013G18KT 10SM BKN024 OVC030 29/24 A2992